sensor_id;sensor_type;location;lat;lon;timestamp;pressure;altitude;pressure_sealevel;temperature;humidity
40384;BME280;26097;42.366;23.818;2023-02-19T00:02:20;94246.06;;;6.68;55.54
40384;BME280;26097;42.366;23.818;2023-02-19T00:05:20;94246.50;;;6.30;56.29
40384;BME280;26097;42.366;23.818;2023-02-19T00:08:20;94251.59;;;6.16;56.74
40384;BME280;26097;42.366;23.818;2023-02-19T00:11:24;94244.50;;;6.03;56.57
40384;BME280;26097;42.366;23.818;2023-02-19T00:14:24;94233.66;;;6.12;56.89
40384;BME280;26097;42.366;23.818;2023-02-19T00:17:25;94237.41;;;5.91;57.37
40384;BME280;26097;42.366;23.818;2023-02-19T00:20:25;94225.66;;;6.01;57.46
40384;BME280;26097;42.366;23.818;2023-02-19T00:23:26;94233.31;;;5.86;57.65
40384;BME280;26097;42.366;23.818;2023-02-19T00:26:27;94233.25;;;5.88;57.72
40384;BME280;26097;42.366;23.818;2023-02-19T00:29:27;94227.91;;;5.75;58.19
40384;BME280;26097;42.366;23.818;2023-02-19T00:32:28;94221.06;;;5.74;58.77
40384;BME280;26097;42.366;23.818;2023-02-19T00:35:28;94219.72;;;5.67;58.67
40384;BME280;26097;42.366;23.818;2023-02-19T00:38:29;94225.47;;;5.56;58.83
40384;BME280;26097;42.366;23.818;2023-02-19T00:41:29;94214.53;;;5.99;57.99
40384;BME280;26097;42.366;23.818;2023-02-19T00:44:30;94223.47;;;6.70;56.94
40384;BME280;26097;42.366;23.818;2023-02-19T00:47:30;94218.06;;;6.59;58.14
40384;BME280;26097;42.366;23.818;2023-02-19T00:50:30;94223.25;;;7.75;55.99
40384;BME280;26097;42.366;23.818;2023-02-19T00:53:31;94217.50;;;8.25;53.34
40384;BME280;26097;42.366;23.818;2023-02-19T00:56:31;94219.47;;;8.49;52.77
40384;BME280;26097;42.366;23.818;2023-02-19T00:59:32;94217.66;;;8.64;51.91
40384;BME280;26097;42.366;23.818;2023-02-19T01:02:32;94224.31;;;8.81;51.48
40384;BME280;26097;42.366;23.818;2023-02-19T01:05:33;94208.31;;;8.87;51.48
40384;BME280;26097;42.366;23.818;2023-02-19T01:08:33;94206.66;;;8.86;51.63
40384;BME280;26097;42.366;23.818;2023-02-19T01:11:34;94193.13;;;8.81;51.54
40384;BME280;26097;42.366;23.818;2023-02-19T01:14:35;94201.84;;;8.54;52.25
40384;BME280;26097;42.366;23.818;2023-02-19T01:17:35;94195.53;;;8.43;52.78
40384;BME280;26097;42.366;23.818;2023-02-19T01:20:43;94197.59;;;8.25;53.18
40384;BME280;26097;42.366;23.818;2023-02-19T01:23:44;94187.25;;;7.83;54.17
40384;BME280;26097;42.366;23.818;2023-02-19T01:26:44;94188.47;;;8.05;53.68
40384;BME280;26097;42.366;23.818;2023-02-19T01:29:45;94189.00;;;7.55;54.92
40384;BME280;26097;42.366;23.818;2023-02-19T01:32:45;94179.97;;;7.34;55.61
40384;BME280;26097;42.366;23.818;2023-02-19T01:35:45;94198.22;;;7.89;54.15
40384;BME280;26097;42.366;23.818;2023-02-19T01:38:46;94200.63;;;8.73;53.10
40384;BME280;26097;42.366;23.818;2023-02-19T01:41:47;94200.91;;;8.81;51.58
40384;BME280;26097;42.366;23.818;2023-02-19T01:48:00;94186.50;;;8.36;52.85
40384;BME280;26097;42.366;23.818;2023-02-19T01:54:06;94190.34;;;7.48;55.28
40384;BME280;26097;42.366;23.818;2023-02-19T01:57:13;94191.38;;;8.28;53.18
40384;BME280;26097;42.366;23.818;2023-02-19T02:00:16;94193.97;;;8.81;51.81
40384;BME280;26097;42.366;23.818;2023-02-19T02:03:17;94195.81;;;9.44;49.96
40384;BME280;26097;42.366;23.818;2023-02-19T02:06:22;94189.84;;;9.55;49.86
40384;BME280;26097;42.366;23.818;2023-02-19T02:09:26;94192.28;;;9.19;50.30
40384;BME280;26097;42.366;23.818;2023-02-19T02:12:47;94202.34;;;9.37;50.21
40384;BME280;26097;42.366;23.818;2023-02-19T02:15:53;94197.50;;;9.69;49.01
40384;BME280;26097;42.366;23.818;2023-02-19T02:22:17;94204.94;;;9.50;48.86
40384;BME280;26097;42.366;23.818;2023-02-19T02:28:52;94222.19;;;9.64;49.08
40384;BME280;26097;42.366;23.818;2023-02-19T02:32:11;94221.81;;;9.44;49.01
40384;BME280;26097;42.366;23.818;2023-02-19T02:35:14;94217.03;;;9.38;49.42
40384;BME280;26097;42.366;23.818;2023-02-19T02:38:20;94226.84;;;9.34;49.39
40384;BME280;26097;42.366;23.818;2023-02-19T02:41:22;94234.94;;;9.29;49.39
40384;BME280;26097;42.366;23.818;2023-02-19T02:44:33;94241.41;;;9.11;50.03
40384;BME280;26097;42.366;23.818;2023-02-19T02:47:37;94245.75;;;8.97;50.51
40384;BME280;26097;42.366;23.818;2023-02-19T02:53:56;94246.31;;;8.62;51.60
40384;BME280;26097;42.366;23.818;2023-02-19T02:57:17;94244.13;;;8.56;51.58
40384;BME280;26097;42.366;23.818;2023-02-19T03:00:18;94245.53;;;8.75;50.89
40384;BME280;26097;42.366;23.818;2023-02-19T03:03:21;94250.72;;;8.75;50.72
40384;BME280;26097;42.366;23.818;2023-02-19T03:06:23;94245.53;;;9.00;50.15
40384;BME280;26097;42.366;23.818;2023-02-19T03:09:31;94240.34;;;9.26;49.32
40384;BME280;26097;42.366;23.818;2023-02-19T03:12:35;94245.91;;;9.72;48.10
40384;BME280;26097;42.366;23.818;2023-02-19T03:16:01;94241.13;;;10.27;46.61
40384;BME280;26097;42.366;23.818;2023-02-19T03:19:26;94251.38;;;10.18;47.19
40384;BME280;26097;42.366;23.818;2023-02-19T03:22:33;94254.28;;;10.26;46.69
40384;BME280;26097;42.366;23.818;2023-02-19T03:25:36;94255.38;;;10.48;45.88
40384;BME280;26097;42.366;23.818;2023-02-19T03:28:57;94253.38;;;10.38;46.37
40384;BME280;26097;42.366;23.818;2023-02-19T03:32:24;94260.63;;;10.22;46.67
40384;BME280;26097;42.366;23.818;2023-02-19T03:35:30;94263.31;;;10.33;46.25
40384;BME280;26097;42.366;23.818;2023-02-19T03:38:42;94266.06;;;10.56;45.56
40384;BME280;26097;42.366;23.818;2023-02-19T03:48:18;94271.59;;;10.51;45.37
40384;BME280;26097;42.366;23.818;2023-02-19T03:51:25;94277.00;;;10.61;45.50
40384;BME280;26097;42.366;23.818;2023-02-19T03:54:36;94276.75;;;10.64;45.15
40384;BME280;26097;42.366;23.818;2023-02-19T04:00:58;94275.88;;;10.39;45.92
40384;BME280;26097;42.366;23.818;2023-02-19T04:04:31;94275.88;;;10.52;45.29
40384;BME280;26097;42.366;23.818;2023-02-19T04:07:37;94294.78;;;10.67;44.78
40384;BME280;26097;42.366;23.818;2023-02-19T04:10:40;94303.31;;;10.69;44.98
40384;BME280;26097;42.366;23.818;2023-02-19T04:13:55;94306.16;;;10.42;45.94
40384;BME280;26097;42.366;23.818;2023-02-19T04:17:02;94307.47;;;9.60;48.57
40384;BME280;26097;42.366;23.818;2023-02-19T04:20:07;94315.53;;;9.04;49.63
40384;BME280;26097;42.366;23.818;2023-02-19T04:23:09;94307.91;;;8.88;50.26
40384;BME280;26097;42.366;23.818;2023-02-19T04:26:11;94327.28;;;8.56;50.67
40384;BME280;26097;42.366;23.818;2023-02-19T04:29:12;94313.38;;;8.42;51.39
40384;BME280;26097;42.366;23.818;2023-02-19T04:32:13;94319.13;;;8.48;50.48
40384;BME280;26097;42.366;23.818;2023-02-19T04:35:13;94329.00;;;8.28;51.51
40384;BME280;26097;42.366;23.818;2023-02-19T04:38:14;94340.63;;;9.05;49.13
40384;BME280;26097;42.366;23.818;2023-02-19T04:41:14;94330.16;;;9.45;48.07
40384;BME280;26097;42.366;23.818;2023-02-19T04:44:14;94333.56;;;9.71;47.38
40384;BME280;26097;42.366;23.818;2023-02-19T04:47:15;94331.03;;;9.96;46.69
40384;BME280;26097;42.366;23.818;2023-02-19T04:50:19;94324.53;;;10.14;46.73
40384;BME280;26097;42.366;23.818;2023-02-19T04:53:20;94332.94;;;10.31;46.50
40384;BME280;26097;42.366;23.818;2023-02-19T04:56:21;94328.75;;;10.41;46.35
40384;BME280;26097;42.366;23.818;2023-02-19T04:59:21;94337.50;;;10.40;46.38
40384;BME280;26097;42.366;23.818;2023-02-19T05:02:22;94337.84;;;10.36;46.76
40384;BME280;26097;42.366;23.818;2023-02-19T05:05:22;94349.78;;;10.38;46.43
40384;BME280;26097;42.366;23.818;2023-02-19T05:08:22;94353.63;;;10.59;46.18
40384;BME280;26097;42.366;23.818;2023-02-19T05:11:23;94355.22;;;10.73;46.07
40384;BME280;26097;42.366;23.818;2023-02-19T05:14:23;94352.38;;;10.64;46.53
40384;BME280;26097;42.366;23.818;2023-02-19T05:17:24;94346.84;;;10.56;46.66
40384;BME280;26097;42.366;23.818;2023-02-19T05:20:24;94350.34;;;10.43;47.17
40384;BME280;26097;42.366;23.818;2023-02-19T05:23:25;94357.81;;;10.48;46.84
40384;BME280;26097;42.366;23.818;2023-02-19T05:26:26;94364.41;;;10.41;47.06
40384;BME280;26097;42.366;23.818;2023-02-19T05:29:26;94365.78;;;10.34;47.23
40384;BME280;26097;42.366;23.818;2023-02-19T05:32:27;94369.13;;;10.23;47.54
40384;BME280;26097;42.366;23.818;2023-02-19T05:35:27;94374.91;;;9.76;48.77
40384;BME280;26097;42.366;23.818;2023-02-19T05:38:27;94375.63;;;9.78;48.62
40384;BME280;26097;42.366;23.818;2023-02-19T05:41:29;94391.16;;;9.93;47.85
40384;BME280;26097;42.366;23.818;2023-02-19T05:44:29;94393.94;;;10.15;47.23
40384;BME280;26097;42.366;23.818;2023-02-19T05:47:30;94400.41;;;10.10;47.57
40384;BME280;26097;42.366;23.818;2023-02-19T05:50:31;94404.56;;;10.12;47.28
40384;BME280;26097;42.366;23.818;2023-02-19T05:53:32;94413.09;;;10.14;47.81
40384;BME280;26097;42.366;23.818;2023-02-19T05:56:38;94412.28;;;10.27;47.49
40384;BME280;26097;42.366;23.818;2023-02-19T05:59:39;94421.03;;;10.26;47.69
40384;BME280;26097;42.366;23.818;2023-02-19T06:02:39;94422.88;;;10.37;47.49
40384;BME280;26097;42.366;23.818;2023-02-19T06:05:40;94421.31;;;10.47;47.26
40384;BME280;26097;42.366;23.818;2023-02-19T06:08:40;94422.25;;;10.46;47.07
40384;BME280;26097;42.366;23.818;2023-02-19T06:11:40;94429.78;;;10.25;47.80
40384;BME280;26097;42.366;23.818;2023-02-19T06:14:42;94422.69;;;10.01;48.39
40384;BME280;26097;42.366;23.818;2023-02-19T06:17:43;94427.47;;;9.81;49.32
40384;BME280;26097;42.366;23.818;2023-02-19T06:20:43;94415.81;;;10.26;47.62
40384;BME280;26097;42.366;23.818;2023-02-19T06:23:44;94419.22;;;10.39;46.97
40384;BME280;26097;42.366;23.818;2023-02-19T06:26:44;94427.56;;;10.57;46.71
40384;BME280;26097;42.366;23.818;2023-02-19T06:29:45;94426.53;;;10.84;46.14
40384;BME280;26097;42.366;23.818;2023-02-19T06:32:46;94412.38;;;11.00;45.54
40384;BME280;26097;42.366;23.818;2023-02-19T06:35:46;94424.03;;;11.07;45.21
40384;BME280;26097;42.366;23.818;2023-02-19T06:38:46;94442.03;;;11.23;44.97
40384;BME280;26097;42.366;23.818;2023-02-19T06:41:47;94438.88;;;11.42;44.45
40384;BME280;26097;42.366;23.818;2023-02-19T06:44:47;94440.22;;;11.48;44.57
40384;BME280;26097;42.366;23.818;2023-02-19T06:47:48;94446.63;;;11.55;44.56
40384;BME280;26097;42.366;23.818;2023-02-19T06:50:48;94449.16;;;11.57;44.47
40384;BME280;26097;42.366;23.818;2023-02-19T06:53:48;94448.81;;;11.62;44.51
40384;BME280;26097;42.366;23.818;2023-02-19T06:56:49;94448.81;;;11.62;44.76
40384;BME280;26097;42.366;23.818;2023-02-19T06:59:49;94453.75;;;11.53;44.59
40384;BME280;26097;42.366;23.818;2023-02-19T07:02:50;94441.09;;;11.60;44.41
40384;BME280;26097;42.366;23.818;2023-02-19T07:05:58;94443.34;;;11.65;44.57
40384;BME280;26097;42.366;23.818;2023-02-19T07:08:58;94446.22;;;11.73;44.44
40384;BME280;26097;42.366;23.818;2023-02-19T07:11:59;94445.03;;;11.77;44.25
40384;BME280;26097;42.366;23.818;2023-02-19T07:14:59;94429.75;;;11.84;44.58
40384;BME280;26097;42.366;23.818;2023-02-19T07:17:59;94434.72;;;11.87;43.68
40384;BME280;26097;42.366;23.818;2023-02-19T07:21:09;94434.88;;;11.97;43.63
40384;BME280;26097;42.366;23.818;2023-02-19T07:24:09;94455.09;;;12.06;43.86
40384;BME280;26097;42.366;23.818;2023-02-19T07:27:10;94426.50;;;12.16;43.38
40384;BME280;26097;42.366;23.818;2023-02-19T07:30:10;94420.31;;;12.17;43.27
40384;BME280;26097;42.366;23.818;2023-02-19T07:33:11;94420.44;;;12.16;43.81
40384;BME280;26097;42.366;23.818;2023-02-19T07:36:12;94429.81;;;12.18;43.31
40384;BME280;26097;42.366;23.818;2023-02-19T07:39:13;94424.97;;;12.25;43.39
40384;BME280;26097;42.366;23.818;2023-02-19T07:42:14;94430.66;;;12.30;43.34
40384;BME280;26097;42.366;23.818;2023-02-19T07:45:15;94419.03;;;12.23;44.02
40384;BME280;26097;42.366;23.818;2023-02-19T07:48:15;94424.25;;;12.23;43.15
40384;BME280;26097;42.366;23.818;2023-02-19T07:51:18;94419.72;;;12.25;43.47
40384;BME280;26097;42.366;23.818;2023-02-19T07:54:19;94419.72;;;12.36;43.87
40384;BME280;26097;42.366;23.818;2023-02-19T07:57:19;94422.56;;;12.33;44.03
40384;BME280;26097;42.366;23.818;2023-02-19T08:00:20;94423.06;;;12.38;44.14
40384;BME280;26097;42.366;23.818;2023-02-19T08:03:20;94411.88;;;12.48;43.76
40384;BME280;26097;42.366;23.818;2023-02-19T08:06:21;94410.91;;;12.60;43.58
40384;BME280;26097;42.366;23.818;2023-02-19T08:09:21;94416.09;;;12.83;43.39
40384;BME280;26097;42.366;23.818;2023-02-19T08:12:21;94419.88;;;12.90;43.35
40384;BME280;26097;42.366;23.818;2023-02-19T08:15:40;94413.44;;;12.94;42.90
40384;BME280;26097;42.366;23.818;2023-02-19T08:18:41;94416.78;;;12.96;43.36
40384;BME280;26097;42.366;23.818;2023-02-19T08:21:41;94411.31;;;12.99;43.03
40384;BME280;26097;42.366;23.818;2023-02-19T08:24:41;94414.47;;;13.14;42.95
40384;BME280;26097;42.366;23.818;2023-02-19T08:27:44;94401.25;;;13.16;43.06
40384;BME280;26097;42.366;23.818;2023-02-19T08:30:46;94392.94;;;13.11;43.34
40384;BME280;26097;42.366;23.818;2023-02-19T08:33:46;94422.84;;;13.29;43.21
40384;BME280;26097;42.366;23.818;2023-02-19T08:36:46;94396.16;;;13.47;42.74
40384;BME280;26097;42.366;23.818;2023-02-19T08:39:47;94391.88;;;13.46;43.03
40384;BME280;26097;42.366;23.818;2023-02-19T08:42:47;94389.97;;;13.48;42.60
40384;BME280;26097;42.366;23.818;2023-02-19T08:45:51;94390.88;;;13.59;42.67
40384;BME280;26097;42.366;23.818;2023-02-19T08:48:52;94377.69;;;13.70;42.39
40384;BME280;26097;42.366;23.818;2023-02-19T08:51:53;94387.59;;;13.88;42.49
40384;BME280;26097;42.366;23.818;2023-02-19T08:54:53;94383.31;;;13.87;41.84
40384;BME280;26097;42.366;23.818;2023-02-19T08:57:54;94378.97;;;13.97;42.12
40384;BME280;26097;42.366;23.818;2023-02-19T09:00:54;94384.16;;;13.87;41.86
40384;BME280;26097;42.366;23.818;2023-02-19T09:03:55;94374.59;;;14.07;41.81
40384;BME280;26097;42.366;23.818;2023-02-19T09:06:55;94369.59;;;14.04;42.01
40384;BME280;26097;42.366;23.818;2023-02-19T09:09:55;94367.94;;;14.03;41.27
40384;BME280;26097;42.366;23.818;2023-02-19T09:12:56;94361.66;;;14.16;41.70
40384;BME280;26097;42.366;23.818;2023-02-19T09:15:56;94353.69;;;14.27;41.39
40384;BME280;26097;42.366;23.818;2023-02-19T09:18:57;94347.41;;;14.39;41.20
40384;BME280;26097;42.366;23.818;2023-02-19T09:21:58;94344.78;;;14.39;41.17
40384;BME280;26097;42.366;23.818;2023-02-19T09:24:58;94346.56;;;14.49;41.10
40384;BME280;26097;42.366;23.818;2023-02-19T09:27:59;94341.31;;;14.49;40.75
40384;BME280;26097;42.366;23.818;2023-02-19T09:31:07;94350.19;;;14.57;41.09
40384;BME280;26097;42.366;23.818;2023-02-19T09:34:08;94335.31;;;14.68;40.58
40384;BME280;26097;42.366;23.818;2023-02-19T09:37:10;94340.69;;;14.66;40.81
40384;BME280;26097;42.366;23.818;2023-02-19T09:40:11;94342.09;;;14.80;40.86
40384;BME280;26097;42.366;23.818;2023-02-19T09:43:15;94332.88;;;14.86;40.74
40384;BME280;26097;42.366;23.818;2023-02-19T09:49:33;94328.72;;;15.33;40.04
40384;BME280;26097;42.366;23.818;2023-02-19T09:52:57;94324.84;;;15.37;39.53
40384;BME280;26097;42.366;23.818;2023-02-19T09:55:58;94320.34;;;15.67;39.58
40384;BME280;26097;42.366;23.818;2023-02-19T09:59:00;94314.25;;;15.76;39.21
40384;BME280;26097;42.366;23.818;2023-02-19T10:02:12;94317.28;;;15.81;38.39
40384;BME280;26097;42.366;23.818;2023-02-19T10:05:14;94307.84;;;15.98;38.86
40384;BME280;26097;42.366;23.818;2023-02-19T10:08:19;94301.56;;;16.09;38.19
40384;BME280;26097;42.366;23.818;2023-02-19T10:11:21;94309.22;;;16.03;38.34
40384;BME280;26097;42.366;23.818;2023-02-19T10:14:35;94292.63;;;16.02;38.17
40384;BME280;26097;42.366;23.818;2023-02-19T10:17:38;94277.03;;;16.19;38.13
40384;BME280;26097;42.366;23.818;2023-02-19T10:20:39;94280.34;;;16.21;37.94
40384;BME280;26097;42.366;23.818;2023-02-19T10:23:40;94262.03;;;16.29;38.12
40384;BME280;26097;42.366;23.818;2023-02-19T10:26:41;94268.94;;;16.30;38.06
40384;BME280;26097;42.366;23.818;2023-02-19T10:29:42;94252.53;;;16.18;38.29
40384;BME280;26097;42.366;23.818;2023-02-19T10:33:13;94241.16;;;16.46;38.07
40384;BME280;26097;42.366;23.818;2023-02-19T10:36:28;94228.53;;;16.67;37.76
40384;BME280;26097;42.366;23.818;2023-02-19T10:39:38;94234.03;;;16.74;38.03
40384;BME280;26097;42.366;23.818;2023-02-19T10:42:48;94272.19;;;15.86;39.67
40384;BME280;26097;42.366;23.818;2023-02-19T10:45:49;94217.84;;;15.77;40.02
40384;BME280;26097;42.366;23.818;2023-02-19T10:48:54;94202.75;;;15.79;40.22
40384;BME280;26097;42.366;23.818;2023-02-19T10:51:59;94198.28;;;15.99;39.43
40384;BME280;26097;42.366;23.818;2023-02-19T10:55:26;94200.28;;;15.77;40.34
40384;BME280;26097;42.366;23.818;2023-02-19T10:58:27;94183.91;;;15.93;39.91
40384;BME280;26097;42.366;23.818;2023-02-19T11:01:28;94196.19;;;15.65;40.55
40384;BME280;26097;42.366;23.818;2023-02-19T11:04:30;94175.13;;;15.75;40.72
40384;BME280;26097;42.366;23.818;2023-02-19T11:07:38;94176.84;;;15.94;40.45
40384;BME280;26097;42.366;23.818;2023-02-19T11:10:46;94179.75;;;15.91;40.57
40384;BME280;26097;42.366;23.818;2023-02-19T11:13:47;94166.47;;;15.92;40.89
40384;BME280;26097;42.366;23.818;2023-02-19T11:16:56;94164.97;;;15.90;40.84
40384;BME280;26097;42.366;23.818;2023-02-19T11:19:59;94157.94;;;16.08;40.41
40384;BME280;26097;42.366;23.818;2023-02-19T11:23:13;94151.28;;;16.32;40.46
40384;BME280;26097;42.366;23.818;2023-02-19T11:26:26;94145.09;;;16.05;40.37
40384;BME280;26097;42.366;23.818;2023-02-19T11:29:29;94146.53;;;16.36;40.39
40384;BME280;26097;42.366;23.818;2023-02-19T11:32:33;94133.06;;;16.57;40.02
40384;BME280;26097;42.366;23.818;2023-02-19T11:35:34;94136.41;;;16.85;39.69
40384;BME280;26097;42.366;23.818;2023-02-19T11:38:34;94134.72;;;16.58;39.71
40384;BME280;26097;42.366;23.818;2023-02-19T11:45:05;94139.63;;;16.53;39.58
40384;BME280;26097;42.366;23.818;2023-02-19T12:08:16;94093.16;;;16.62;39.56
40384;BME280;26097;42.366;23.818;2023-02-19T12:14:53;94086.38;;;16.59;39.71
40384;BME280;26097;42.366;23.818;2023-02-19T12:36:40;94060.97;;;17.29;38.58
40384;BME280;26097;42.366;23.818;2023-02-19T12:52:15;94028.66;;;17.70;36.67
40384;BME280;26097;42.366;23.818;2023-02-19T12:55:23;94015.50;;;17.95;37.26
40384;BME280;26097;42.366;23.818;2023-02-19T12:58:34;94019.38;;;17.66;37.59
40384;BME280;26097;42.366;23.818;2023-02-19T13:01:51;94013.66;;;17.87;37.59
40384;BME280;26097;42.366;23.818;2023-02-19T13:08:31;93987.31;;;18.12;36.26
40384;BME280;26097;42.366;23.818;2023-02-19T13:14:46;93992.44;;;18.13;36.62
40384;BME280;26097;42.366;23.818;2023-02-19T13:17:55;93987.19;;;18.13;36.00
40384;BME280;26097;42.366;23.818;2023-02-19T13:20:57;93978.28;;;18.15;36.54
40384;BME280;26097;42.366;23.818;2023-02-19T13:23:59;93970.03;;;18.18;36.68
40384;BME280;26097;42.366;23.818;2023-02-19T13:30:44;93966.41;;;18.02;36.08
40384;BME280;26097;42.366;23.818;2023-02-19T13:36:58;93952.53;;;18.25;36.40
40384;BME280;26097;42.366;23.818;2023-02-19T13:43:29;93955.84;;;18.10;36.09
40384;BME280;26097;42.366;23.818;2023-02-19T13:46:37;93941.69;;;18.11;36.53
40384;BME280;26097;42.366;23.818;2023-02-19T13:49:39;93936.56;;;18.18;35.84
40384;BME280;26097;42.366;23.818;2023-02-19T13:52:40;93943.63;;;18.26;35.73
40384;BME280;26097;42.366;23.818;2023-02-19T13:58:53;93929.75;;;18.40;35.55
40384;BME280;26097;42.366;23.818;2023-02-19T14:04:59;93924.50;;;18.07;35.75
40384;BME280;26097;42.366;23.818;2023-02-19T14:07:59;93920.09;;;18.08;36.16
40384;BME280;26097;42.366;23.818;2023-02-19T14:11:00;93918.59;;;18.13;35.96
40384;BME280;26097;42.366;23.818;2023-02-19T14:14:25;93911.97;;;18.26;35.31
40384;BME280;26097;42.366;23.818;2023-02-19T14:20:43;93914.94;;;18.31;35.29
40384;BME280;26097;42.366;23.818;2023-02-19T14:23:51;93911.78;;;18.36;35.58
40384;BME280;26097;42.366;23.818;2023-02-19T14:26:55;93912.22;;;18.56;35.68
40384;BME280;26097;42.366;23.818;2023-02-19T14:29:56;93910.28;;;18.50;35.56
40384;BME280;26097;42.366;23.818;2023-02-19T14:32:57;93906.66;;;18.42;35.73
40384;BME280;26097;42.366;23.818;2023-02-19T14:39:36;93898.00;;;17.84;36.04
40384;BME280;26097;42.366;23.818;2023-02-19T14:42:40;93893.41;;;17.61;36.95
40384;BME280;26097;42.366;23.818;2023-02-19T14:45:43;93900.78;;;17.58;37.21
40384;BME280;26097;42.366;23.818;2023-02-19T14:48:45;93894.53;;;17.67;36.42
40384;BME280;26097;42.366;23.818;2023-02-19T14:51:48;93891.25;;;17.56;37.36
40384;BME280;26097;42.366;23.818;2023-02-19T14:54:56;93895.66;;;17.31;37.32
40384;BME280;26097;42.366;23.818;2023-02-19T14:58:00;93892.44;;;16.94;38.01
40384;BME280;26097;42.366;23.818;2023-02-19T15:01:03;93891.50;;;17.04;37.00
40384;BME280;26097;42.366;23.818;2023-02-19T15:04:05;93889.88;;;17.11;36.83
40384;BME280;26097;42.366;23.818;2023-02-19T15:07:08;93892.81;;;17.08;36.97
40384;BME280;26097;42.366;23.818;2023-02-19T15:10:11;93886.22;;;17.04;37.39
40384;BME280;26097;42.366;23.818;2023-02-19T15:13:19;93887.84;;;16.96;37.69
40384;BME280;26097;42.366;23.818;2023-02-19T15:16:23;93891.06;;;16.74;38.10
40384;BME280;26097;42.366;23.818;2023-02-19T15:19:25;93893.28;;;16.52;38.92
40384;BME280;26097;42.366;23.818;2023-02-19T15:22:26;93883.50;;;16.36;38.45
40384;BME280;26097;42.366;23.818;2023-02-19T15:25:35;93883.13;;;15.96;38.95
40384;BME280;26097;42.366;23.818;2023-02-19T15:28:37;93882.50;;;15.57;39.24
40384;BME280;26097;42.366;23.818;2023-02-19T15:31:47;93889.84;;;15.18;40.18
40384;BME280;26097;42.366;23.818;2023-02-19T15:34:59;93880.63;;;15.32;37.41
40384;BME280;26097;42.366;23.818;2023-02-19T15:38:00;93890.41;;;15.21;37.10
40384;BME280;26097;42.366;23.818;2023-02-19T15:41:00;93888.91;;;15.37;36.20
40384;BME280;26097;42.366;23.818;2023-02-19T15:47:40;93884.09;;;15.14;36.77
40384;BME280;26097;42.366;23.818;2023-02-19T15:50:46;93893.00;;;15.03;36.81
40384;BME280;26097;42.366;23.818;2023-02-19T15:53:50;93895.47;;;15.05;36.58
40384;BME280;26097;42.366;23.818;2023-02-19T15:56:56;93889.72;;;15.19;36.71
40384;BME280;26097;42.366;23.818;2023-02-19T16:00:04;93891.44;;;15.10;36.56
40384;BME280;26097;42.366;23.818;2023-02-19T16:03:14;93891.59;;;15.09;36.30
40384;BME280;26097;42.366;23.818;2023-02-19T16:06:17;93882.63;;;14.83;37.13
40384;BME280;26097;42.366;23.818;2023-02-19T16:09:22;93888.78;;;14.74;37.37
40384;BME280;26097;42.366;23.818;2023-02-19T16:12:23;93893.75;;;14.67;37.46
40384;BME280;26097;42.366;23.818;2023-02-19T16:15:25;93888.78;;;14.74;37.38
40384;BME280;26097;42.366;23.818;2023-02-19T16:18:26;93899.59;;;14.61;37.53
40384;BME280;26097;42.366;23.818;2023-02-19T16:21:27;93911.00;;;14.70;37.30
40384;BME280;26097;42.366;23.818;2023-02-19T16:24:36;93908.44;;;14.60;37.16
40384;BME280;26097;42.366;23.818;2023-02-19T16:27:41;93911.84;;;14.61;37.52
40384;BME280;26097;42.366;23.818;2023-02-19T16:30:41;93909.81;;;14.54;37.60
40384;BME280;26097;42.366;23.818;2023-02-19T16:33:43;93920.94;;;14.38;38.08
40384;BME280;26097;42.366;23.818;2023-02-19T16:36:44;93910.34;;;14.30;38.04
40384;BME280;26097;42.366;23.818;2023-02-19T16:39:47;93929.22;;;14.34;38.29
40384;BME280;26097;42.366;23.818;2023-02-19T16:46:08;93936.78;;;14.47;37.93
40384;BME280;26097;42.366;23.818;2023-02-19T16:49:09;93949.13;;;14.26;38.28
40384;BME280;26097;42.366;23.818;2023-02-19T16:52:13;93945.53;;;14.27;38.24
40384;BME280;26097;42.366;23.818;2023-02-19T16:55:14;93954.13;;;14.10;38.82
40384;BME280;26097;42.366;23.818;2023-02-19T16:58:15;93954.31;;;13.89;39.25
40384;BME280;26097;42.366;23.818;2023-02-19T17:01:16;93957.44;;;14.12;38.87
40384;BME280;26097;42.366;23.818;2023-02-19T17:04:17;93946.84;;;13.94;39.21
40384;BME280;26097;42.366;23.818;2023-02-19T17:07:17;93950.84;;;13.98;39.22
40384;BME280;26097;42.366;23.818;2023-02-19T17:10:20;93967.81;;;13.84;39.27
40384;BME280;26097;42.366;23.818;2023-02-19T17:13:22;93975.16;;;13.80;39.63
40384;BME280;26097;42.366;23.818;2023-02-19T17:16:27;93970.19;;;13.77;39.54
40384;BME280;26097;42.366;23.818;2023-02-19T17:19:27;93982.31;;;13.68;39.71
40384;BME280;26097;42.366;23.818;2023-02-19T17:22:28;93981.63;;;13.66;39.81
40384;BME280;26097;42.366;23.818;2023-02-19T17:25:28;93986.03;;;13.66;39.49
40384;BME280;26097;42.366;23.818;2023-02-19T17:28:28;94003.91;;;13.41;40.19
40384;BME280;26097;42.366;23.818;2023-02-19T17:31:29;94007.25;;;13.43;39.88
40384;BME280;26097;42.366;23.818;2023-02-19T17:34:29;94012.03;;;13.38;39.81
40384;BME280;26097;42.366;23.818;2023-02-19T17:37:30;94008.25;;;13.11;40.29
40384;BME280;26097;42.366;23.818;2023-02-19T17:40:31;94005.28;;;12.84;40.52
40384;BME280;26097;42.366;23.818;2023-02-19T17:43:31;94008.41;;;12.68;41.07
40384;BME280;26097;42.366;23.818;2023-02-19T17:46:31;94004.47;;;12.84;41.00
40384;BME280;26097;42.366;23.818;2023-02-19T17:49:33;94004.19;;;12.87;40.50
40384;BME280;26097;42.366;23.818;2023-02-19T17:52:34;94013.34;;;13.03;40.22
40384;BME280;26097;42.366;23.818;2023-02-19T17:55:34;94010.00;;;12.91;40.44
40384;BME280;26097;42.366;23.818;2023-02-19T17:58:35;93999.31;;;12.73;40.53
40384;BME280;26097;42.366;23.818;2023-02-19T18:01:35;94006.22;;;12.42;41.43
40384;BME280;26097;42.366;23.818;2023-02-19T18:04:36;94008.72;;;12.02;42.59
40384;BME280;26097;42.366;23.818;2023-02-19T18:07:36;94012.81;;;11.62;43.11